Time;durP1;ratioP1;P1;durP2;ratioP2;P2;SDS_P1;SDS_P2;PMS_P1;PMS_P2;Temp;Humidity;BMP_temperature;BMP_pressure;BME280_temperature;BME280_humidity;BME280_pressure;Samples;Min_cycle;Max_cycle;Signal;HPM_P1;HPM_P2
2021/08/31 00:01:09;;;;;;;9.10;5.37;;;;;;;16.66;70.29;94867.66;5072792;28;20463;-85
2021/08/31 00:03:36;;;;;;;7.70;5.30;;;;;;;16.59;69.77;94875.41;5038100;28;20524;-84
2021/08/31 00:06:02;;;;;;;7.63;5.53;;;;;;;16.59;69.51;94872.78;5072556;28;21074;-84
2021/08/31 00:08:30;;;;;;;9.00;5.07;;;;;;;16.55;70.48;94870.63;5073301;28;20444;-84
2021/08/31 00:10:57;;;;;;;6.80;5.47;;;;;;;16.54;69.94;94879.56;5072910;28;20436;-84
2021/08/31 00:13:24;;;;;;;6.00;5.40;;;;;;;16.50;70.19;94876.44;5037720;28;20449;-84
2021/08/31 00:15:51;;;;;;;5.77;4.90;;;;;;;16.46;70.04;94880.38;5073359;28;20471;-84
2021/08/31 00:18:19;;;;;;;8.57;5.80;;;;;;;16.44;70.22;94882.38;5072926;28;20466;-84
2021/08/31 00:20:46;;;;;;;7.67;5.87;;;;;;;16.45;70.40;94881.38;5073073;28;20444;-84
2021/08/31 00:23:14;;;;;;;6.40;5.77;;;;;;;16.42;70.71;94873.75;5072574;28;20930;-84
2021/08/31 00:25:41;;;;;;;6.27;5.40;;;;;;;16.39;71.24;94872.28;5072615;28;20485;-84
2021/08/31 00:28:08;;;;;;;7.60;6.23;;;;;;;16.32;71.64;94873.94;5072737;28;20550;-84
2021/08/31 00:30:38;;;;;;;6.70;6.10;;;;;;;16.31;72.21;94871.47;5072713;28;20451;-84
2021/08/31 00:33:05;;;;;;;6.10;5.50;;;;;;;16.28;72.63;94875.25;5073028;28;20791;-84
2021/08/31 00:35:33;;;;;;;8.03;5.53;;;;;;;16.27;72.20;94875.44;5072587;28;20532;-84
2021/08/31 00:38:00;;;;;;;6.43;5.37;;;;;;;16.26;72.46;94871.13;5072696;28;20443;-84
2021/08/31 00:40:27;;;;;;;8.17;5.67;;;;;;;16.23;72.69;94876.75;5020954;28;20988;-84
2021/08/31 00:42:54;;;;;;;7.30;5.47;;;;;;;16.21;71.83;94876.94;5072402;28;21013;-84
2021/08/31 00:45:22;;;;;;;9.43;5.97;;;;;;;16.17;72.01;94877.38;5072748;28;20485;-85
2021/08/31 00:47:48;;;;;;;6.27;5.67;;;;;;;16.17;72.53;94887.97;5072794;28;20440;-84
2021/08/31 00:50:17;;;;;;;6.43;5.30;;;;;;;16.10;72.75;94882.53;5072614;28;20451;-83
2021/08/31 00:52:46;;;;;;;9.30;6.00;;;;;;;16.11;72.92;94894.75;5072279;28;20444;-84
2021/08/31 00:55:14;;;;;;;10.43;6.27;;;;;;;16.08;72.56;94890.63;5053660;28;20430;-84
2021/08/31 00:57:42;;;;;;;5.80;5.20;;;;;;;16.03;71.84;94892.94;5072720;28;20533;-83
2021/08/31 01:00:11;;;;;;;6.70;6.10;;;;;;;16.02;72.09;94893.09;5072249;28;20976;-84
2021/08/31 01:02:38;;;;;;;7.47;5.00;;;;;;;15.98;71.84;94897.06;5072465;28;20522;-84
2021/08/31 01:05:07;;;;;;;6.70;6.00;;;;;;;15.92;71.81;94895.91;5072319;28;20491;-84
2021/08/31 01:07:35;;;;;;;7.30;5.80;;;;;;;15.93;72.17;94891.44;5053609;28;20445;-84
2021/08/31 01:10:05;;;;;;;7.73;5.60;;;;;;;15.92;72.26;94895.91;5072529;28;20535;-85
2021/08/31 01:12:32;;;;;;;6.60;5.87;;;;;;;15.91;71.91;94893.44;5020400;28;20457;-84
2021/08/31 01:15:00;;;;;;;7.43;5.40;;;;;;;15.97;72.25;94893.59;5072287;28;20550;-84
2021/08/31 01:17:31;;;;;;;6.03;5.43;;;;;;;15.96;71.57;94897.25;5075244;28;20467;-84
2021/08/31 01:19:59;;;;;;;8.67;5.00;;;;;;;15.99;71.79;94898.72;5075976;28;20450;-84
2021/08/31 01:22:26;;;;;;;7.10;6.30;;;;;;;15.91;72.15;94902.19;5076110;28;20876;-84
2021/08/31 01:24:57;;;;;;;8.10;6.13;;;;;;;15.87;73.25;94897.38;5076112;28;20482;-84
2021/08/31 01:27:25;;;;;;;10.30;6.10;;;;;;;15.85;74.28;94912.56;5076128;28;20447;-84
2021/08/31 01:29:53;;;;;;;6.53;5.70;;;;;;;15.70;73.93;94891.22;5076463;28;20995;-84
2021/08/31 01:32:20;;;;;;;5.73;5.23;;;;;;;15.69;74.28;94905.44;5075669;28;20797;-83
2021/08/31 01:34:47;;;;;;;8.83;5.70;;;;;;;15.70;74.39;94909.75;5075886;28;20528;-84
2021/08/31 01:37:14;;;;;;;8.30;5.40;;;;;;;15.69;73.95;94900.16;5040690;28;20445;-84
2021/08/31 01:39:42;;;;;;;5.90;5.30;;;;;;;15.77;73.68;94900.16;5076754;28;20515;-84
2021/08/31 01:42:10;;;;;;;8.00;5.70;;;;;;;15.78;73.65;94899.16;5076935;28;20448;-84
2021/08/31 01:44:37;;;;;;;7.37;6.67;;;;;;;15.75;74.21;94907.44;5075302;28;20490;-84
2021/08/31 01:47:05;;;;;;;7.23;5.80;;;;;;;15.72;74.13;94902.47;5075543;28;20486;-84
2021/08/31 01:49:31;;;;;;;7.00;6.10;;;;;;;15.74;73.96;94903.97;5075532;28;20512;-84
2021/08/31 01:51:58;;;;;;;7.67;5.90;;;;;;;15.78;74.88;94904.47;5075637;28;20524;-84
2021/08/31 01:54:25;;;;;;;8.53;6.77;;;;;;;15.71;74.75;94904.28;5075236;28;20527;-84
2021/08/31 01:56:54;;;;;;;7.80;6.50;;;;;;;15.73;74.25;94902.31;5075577;28;20935;-84
2021/08/31 01:59:22;;;;;;;7.50;6.57;;;;;;;15.73;74.58;94901.47;5039747;28;20520;-84
2021/08/31 02:01:49;;;;;;;10.73;9.20;;;;;;;15.73;74.90;94904.13;5075693;28;20880;-84
2021/08/31 02:04:16;;;;;;;10.20;9.20;;;;;;;15.74;74.99;94908.44;5075319;28;20471;-84
2021/08/31 02:06:43;;;;;;;12.30;9.63;;;;;;;15.79;74.58;94906.13;5075190;28;20488;-83
2021/08/31 02:09:10;;;;;;;12.60;10.33;;;;;;;15.78;74.58;94888.59;5074905;28;21034;-84
2021/08/31 02:11:37;;;;;;;12.57;8.90;;;;;;;15.77;74.86;94901.00;5074895;28;20455;-84
2021/08/31 02:14:05;;;;;;;10.70;9.57;;;;;;;15.79;75.03;94903.47;5074897;28;20443;-84
2021/08/31 02:16:35;;;;;;;9.43;7.90;;;;;;;15.82;74.79;94897.84;5074913;28;20818;-84
2021/08/31 02:19:02;;;;;;;9.07;7.10;;;;;;;15.85;75.44;94897.53;5075150;28;20471;-84
2021/08/31 02:21:29;;;;;;;8.60;7.80;;;;;;;15.87;75.61;94900.00;5039617;28;20447;-84
2021/08/31 02:23:56;;;;;;;9.73;7.00;;;;;;;15.85;75.95;94899.34;5074803;28;20536;-84
2021/08/31 02:26:23;;;;;;;6.53;5.73;;;;;;;15.85;75.70;94907.28;5074498;28;20485;-84
2021/08/31 02:28:50;;;;;;;9.30;7.03;;;;;;;15.86;76.06;94901.00;5073804;28;20837;-83
2021/08/31 02:31:17;;;;;;;8.60;7.33;;;;;;;15.86;75.54;94903.66;5074231;28;20465;-84
2021/08/31 02:33:45;;;;;;;10.97;6.30;;;;;;;15.77;75.87;94902.81;5074392;28;20452;-84
2021/08/31 02:36:12;;;;;;;7.13;6.23;;;;;;;15.73;76.46;94902.31;5074618;28;20521;-84
2021/08/31 02:38:39;;;;;;;9.30;8.30;;;;;;;15.72;77.59;94905.13;5074382;28;20445;-84
2021/08/31 02:41:06;;;;;;;14.13;7.10;;;;;;;15.69;77.48;94908.91;5022809;28;20440;-84
2021/08/31 02:43:33;;;;;;;9.87;6.83;;;;;;;15.66;77.86;94897.81;5074245;28;20928;-84
2021/08/31 02:46:00;;;;;;;10.63;7.83;;;;;;;15.63;77.82;94898.97;5074277;28;20498;-84
2021/08/31 02:48:27;;;;;;;8.43;6.73;;;;;;;15.62;78.38;94907.06;5074333;28;20451;-84
2021/08/31 02:50:55;;;;;;;7.93;6.50;;;;;;;15.59;78.61;94910.00;5022269;28;20440;-84
2021/08/31 02:53:22;;;;;;;10.10;6.60;;;;;;;15.58;78.82;94910.97;5074690;28;20525;-84
2021/08/31 02:55:49;;;;;;;8.07;6.57;;;;;;;15.57;78.21;94904.03;5039145;28;20443;-84
2021/08/31 02:58:16;;;;;;;8.87;6.67;;;;;;;15.50;78.45;94912.59;5074015;28;20453;-84
2021/08/31 03:00:53;;;;;;;8.00;6.80;;;;;;;15.48;79.26;94919.88;5073993;28;20442;-84
2021/08/31 03:03:20;;;;;;;8.53;6.00;;;;;;;15.48;78.75;94913.75;5074032;28;20948;-84
2021/08/31 03:05:47;;;;;;;11.83;7.27;;;;;;;15.46;79.18;94921.84;5038398;28;20484;-83
2021/08/31 03:08:15;;;;;;;10.30;7.10;;;;;;;15.38;79.44;94911.25;5073720;28;20443;-84
2021/08/31 03:10:42;;;;;;;7.90;6.80;;;;;;;15.33;79.80;94913.53;5074064;28;20442;-84
2021/08/31 03:13:09;;;;;;;8.53;7.33;;;;;;;15.30;79.73;94919.13;5073798;28;20429;-84
2021/08/31 03:15:36;;;;;;;9.37;8.40;;;;;;;15.22;80.36;94921.72;5073774;28;20450;-84
2021/08/31 03:18:03;;;;;;;9.37;7.30;;;;;;;15.16;80.41;94932.94;5073604;28;20532;-84
2021/08/31 03:20:30;;;;;;;7.67;6.70;;;;;;;15.12;81.11;94931.59;5073537;28;20448;-84
2021/08/31 03:22:57;;;;;;;10.97;7.30;;;;;;;15.11;81.30;94933.41;5073872;28;20805;-84
2021/08/31 03:25:25;;;;;;;8.67;6.37;;;;;;;15.10;81.15;94946.78;5038306;28;20485;-83
2021/08/31 03:27:52;;;;;;;9.67;7.40;;;;;;;15.05;81.11;94949.91;5073293;28;21032;-85
2021/08/31 03:30:20;;;;;;;12.20;7.23;;;;;;;14.95;81.88;94945.69;5074215;28;20538;-84
2021/08/31 03:32:47;;;;;;;10.93;8.00;;;;;;;14.90;82.26;94947.97;5074819;28;20465;-84
2021/08/31 03:35:15;;;;;;;10.80;7.27;;;;;;;14.94;82.70;94946.66;5074369;28;20524;-84
2021/08/31 03:37:42;;;;;;;11.57;8.53;;;;;;;14.96;82.85;94955.28;5074430;28;20493;-84
2021/08/31 03:40:11;;;;;;;8.83;7.07;;;;;;;14.99;82.55;94954.94;5073746;28;20531;-85
2021/08/31 03:42:40;;;;;;;11.03;7.40;;;;;;;15.03;82.73;94945.72;5073992;28;20429;-84
2021/08/31 04:01:41;;;;;;;6.93;5.67;;;;;;;14.78;80.47;94964.09;4992668;28;20756;-84
2021/08/31 04:04:07;;;;;;;12.17;6.53;;;;;;;14.76;80.15;94966.06;4992424;28;20565;-84
2021/08/31 04:06:34;;;;;;;8.23;6.40;;;;;;;14.80;80.06;94966.56;4992426;28;20573;-84
2021/08/31 04:09:01;;;;;;;9.87;6.50;;;;;;;14.85;80.22;94965.13;4992222;28;20533;-84
2021/08/31 04:11:28;;;;;;;12.53;6.47;;;;;;;14.95;79.74;94970.28;4992414;28;20473;-84
2021/08/31 04:13:55;;;;;;;8.47;6.00;;;;;;;15.17;79.26;94961.84;4944119;28;20447;-84
2021/08/31 04:16:22;;;;;;;8.20;6.30;;;;;;;15.40;78.39;94962.16;4992696;28;20527;-82
2021/08/31 04:18:52;;;;;;;11.80;6.50;;;;;;;15.80;77.21;94960.69;4992252;28;20451;-82
2021/08/31 04:21:19;;;;;;;9.67;6.60;;;;;;;16.32;75.22;94960.50;4992214;28;20682;-80
2021/08/31 04:23:46;;;;;;;15.83;6.60;;;;;;;16.98;74.58;94962.19;4992317;28;20527;-82
2021/08/31 04:26:13;;;;;;;7.87;5.87;;;;;;;17.73;71.00;94961.91;5070644;28;20495;-83
2021/08/31 04:28:40;;;;;;;8.50;5.90;;;;;;;18.43;67.14;94964.50;5073234;28;20430;-83
2021/08/31 04:31:07;;;;;;;12.70;6.57;;;;;;;18.98;64.33;94969.59;5021940;28;20481;-84
2021/08/31 04:33:34;;;;;;;9.17;6.83;;;;;;;19.55;62.33;94969.06;5074145;28;20539;-82
2021/08/31 04:36:02;;;;;;;6.03;5.17;;;;;;;19.85;60.25;94961.06;5073572;28;20441;-83
2021/08/31 04:38:30;;;;;;;7.27;6.20;;;;;;;20.15;59.13;94969.84;5073434;28;20500;-81
2021/08/31 04:40:56;;;;;;;9.47;6.43;;;;;;;20.45;57.99;94973.31;5073136;28;20515;-83
2021/08/31 04:43:23;;;;;;;10.13;5.27;;;;;;;20.64;57.64;94970.84;5073712;28;20426;-82
2021/08/31 04:45:50;;;;;;;9.90;5.60;;;;;;;20.85;57.28;94964.72;5073274;28;20572;-82
2021/08/31 04:48:17;;;;;;;7.60;6.20;;;;;;;21.02;55.84;94968.75;5021342;28;20453;-83
2021/08/31 04:50:44;;;;;;;6.10;5.60;;;;;;;21.35;55.90;94973.53;5072766;28;20459;-82
2021/08/31 04:53:12;;;;;;;5.97;5.37;;;;;;;21.64;55.21;94976.00;5073221;28;20449;-83
2021/08/31 04:55:39;;;;;;;6.63;5.30;;;;;;;21.72;54.40;94968.88;5072904;28;20437;-83
2021/08/31 04:58:07;;;;;;;6.90;6.30;;;;;;;21.85;54.25;94969.75;5073460;28;20460;-83
2021/08/31 05:00:34;;;;;;;8.00;5.70;;;;;;;21.90;53.94;94971.84;5073760;28;20464;-83
2021/08/31 05:03:01;;;;;;;8.53;5.83;;;;;;;21.89;53.89;94968.34;5073398;28;20469;-84
2021/08/31 05:05:30;;;;;;;11.53;6.67;;;;;;;21.90;54.25;94970.00;5072989;28;20514;-83
2021/08/31 05:07:57;;;;;;;9.10;6.67;;;;;;;22.11;54.74;94970.97;5073365;28;20432;-83
2021/08/31 05:10:26;;;;;;;7.20;6.57;;;;;;;22.33;53.71;94963.66;5072893;28;20521;-83
2021/08/31 05:12:53;;;;;;;12.30;6.37;;;;;;;22.38;53.25;94966.53;5073060;28;20551;-83
2021/08/31 05:15:20;;;;;;;21.93;7.50;;;;;;;22.48;53.05;94964.28;5072849;28;20525;-83
2021/08/31 05:17:47;;;;;;;7.03;6.43;;;;;;;22.54;53.36;94966.16;5072363;28;20964;-83
2021/08/31 05:20:14;;;;;;;8.67;6.20;;;;;;;22.68;52.76;94967.84;5053160;28;20441;-83
2021/08/31 05:22:41;;;;;;;7.37;6.67;;;;;;;22.80;52.13;94968.88;5019657;28;20445;-83
2021/08/31 05:25:08;;;;;;;7.40;6.43;;;;;;;23.01;51.61;94969.78;5036166;28;20440;-83
2021/08/31 05:27:37;;;;;;;8.50;6.83;;;;;;;23.09;50.62;94970.41;5071515;28;20487;-83
2021/08/31 05:30:05;;;;;;;8.03;7.07;;;;;;;23.16;52.46;94959.72;5071467;28;20813;-83
2021/08/31 05:32:31;;;;;;;7.80;7.00;;;;;;;23.18;52.93;94965.69;5071981;28;20621;-83
2021/08/31 05:34:58;;;;;;;12.43;7.63;;;;;;;23.29;53.01;94965.06;5071717;28;20886;-83
2021/08/31 05:37:25;;;;;;;11.80;7.50;;;;;;;23.06;52.72;94965.47;5071363;28;20449;-83
2021/08/31 05:39:52;;;;;;;10.60;8.27;;;;;;;22.89;52.51;94964.22;5019916;28;20451;-83
2021/08/31 05:42:19;;;;;;;11.03;7.13;;;;;;;22.96;52.57;94958.88;5071736;28;20500;-83
2021/08/31 05:44:48;;;;;;;13.43;7.20;;;;;;;22.84;51.71;94959.50;5071401;28;21036;-83
2021/08/31 05:47:15;;;;;;;10.87;7.00;;;;;;;22.78;51.21;94968.28;5071404;28;20492;-83
2021/08/31 05:49:44;;;;;;;7.63;6.93;;;;;;;22.80;52.10;94960.88;5071749;28;20981;-83
2021/08/31 05:52:12;;;;;;;8.07;7.40;;;;;;;22.89;51.72;94955.38;5036948;28;20437;-83
2021/08/31 05:54:41;;;;;;;7.17;6.47;;;;;;;22.90;52.28;94960.53;5071414;28;20530;-83
2021/08/31 05:57:10;;;;;;;7.27;6.57;;;;;;;23.07;51.79;94963.59;5035810;28;20439;-83
2021/08/31 05:59:39;;;;;;;8.50;7.50;;;;;;;23.07;51.18;94960.94;5071099;28;20474;-83
2021/08/31 06:02:09;;;;;;;8.23;7.43;;;;;;;23.19;52.79;94961.97;5071262;28;20452;-83
2021/08/31 06:04:36;;;;;;;13.13;8.63;;;;;;;23.17;51.66;94964.03;5074184;28;20480;-83
2021/08/31 06:07:05;;;;;;;8.93;6.97;;;;;;;23.22;51.59;94969.59;5074756;28;20569;-84
2021/08/31 06:09:35;;;;;;;11.70;7.60;;;;;;;23.15;52.05;94963.44;5039750;28;20538;-83
2021/08/31 06:12:02;;;;;;;9.17;7.37;;;;;;;23.23;52.41;94967.75;5075004;28;20452;-83
2021/08/31 06:14:29;;;;;;;9.00;8.07;;;;;;;23.24;52.38;94962.19;5074578;28;20884;-83
2021/08/31 06:16:56;;;;;;;15.27;8.87;;;;;;;23.27;51.29;94967.13;5074413;28;20531;-83
2021/08/31 06:19:25;;;;;;;12.23;9.53;;;;;;;23.27;52.08;94967.13;5075040;28;20448;-83
2021/08/31 06:21:52;;;;;;;13.33;8.37;;;;;;;23.18;52.96;94961.16;5074786;28;20824;-83
2021/08/31 06:24:18;;;;;;;20.30;10.27;;;;;;;23.27;52.29;94960.94;5074723;28;20446;-83
2021/08/31 06:26:46;;;;;;;10.17;9.00;;;;;;;23.42;52.43;94966.91;5074670;28;20496;-83
2021/08/31 06:29:13;;;;;;;9.70;8.40;;;;;;;23.48;52.27;94966.91;5074334;28;20974;-83
2021/08/31 06:31:39;;;;;;;17.73;9.90;;;;;;;23.46;52.34;94962.78;5074403;28;20534;-83
2021/08/31 06:34:06;;;;;;;16.83;9.63;;;;;;;23.24;52.92;94966.72;5074249;28;20453;-83
2021/08/31 06:36:35;;;;;;;14.53;8.90;;;;;;;23.38;52.59;94966.47;5022533;28;20445;-83
2021/08/31 06:39:02;;;;;;;14.33;10.07;;;;;;;23.38;52.13;94968.34;5074284;28;20476;-83
2021/08/31 06:41:29;;;;;;;17.20;9.83;;;;;;;23.36;51.89;94963.19;5074175;28;20440;-83
2021/08/31 06:43:56;;;;;;;11.40;8.20;;;;;;;23.38;52.21;94958.44;5074439;28;20473;-83
2021/08/31 06:46:23;;;;;;;12.93;8.57;;;;;;;23.60;52.28;94960.94;5074268;28;20512;-83
2021/08/31 06:48:50;;;;;;;11.80;8.40;;;;;;;23.47;52.46;94954.53;5074519;28;20447;-83
2021/08/31 06:51:17;;;;;;;18.87;9.30;;;;;;;23.64;52.55;94962.16;5073976;28;20450;-83
2021/08/31 06:53:45;;;;;;;9.40;8.17;;;;;;;23.69;51.11;94960.50;5073827;28;20972;-83
2021/08/31 06:56:12;;;;;;;12.60;9.07;;;;;;;23.57;52.23;94959.50;5073808;28;20450;-82
2021/08/31 06:58:39;;;;;;;13.00;9.13;;;;;;;23.57;53.20;94956.81;5074138;28;20451;-83
2021/08/31 07:01:06;;;;;;;9.47;7.87;;;;;;;23.70;52.53;94961.31;5074168;28;20451;-83
2021/08/31 07:03:33;;;;;;;10.60;8.33;;;;;;;23.68;52.02;94971.44;5073812;28;20526;-83
2021/08/31 07:06:00;;;;;;;13.40;9.50;;;;;;;23.67;51.39;94967.09;5074335;28;20558;-83
2021/08/31 07:08:27;;;;;;;12.60;8.60;;;;;;;23.52;52.67;94967.31;5073758;28;20473;-83
2021/08/31 07:10:56;;;;;;;9.27;8.33;;;;;;;23.73;51.61;94971.66;5073531;28;20521;-84
2021/08/31 07:13:23;;;;;;;15.37;9.50;;;;;;;23.87;51.88;94967.06;5073769;28;20495;-83
2021/08/31 07:15:51;;;;;;;10.00;8.57;;;;;;;24.10;52.30;94973.59;5075925;28;21021;-83
2021/08/31 07:18:18;;;;;;;12.50;8.90;;;;;;;23.99;51.02;94960.84;5039287;28;20453;-83
2021/08/31 07:20:45;;;;;;;10.80;8.30;;;;;;;23.96;50.32;94973.84;5038494;28;20456;-83
2021/08/31 07:23:14;;;;;;;13.00;8.40;;;;;;;23.65;51.00;94969.16;5073658;28;20537;-83
2021/08/31 07:25:42;;;;;;;11.90;7.97;;;;;;;23.49;50.95;94970.41;5073460;28;20443;-83
2021/08/31 07:28:11;;;;;;;11.70;8.53;;;;;;;23.58;51.69;94968.38;5073197;28;20491;-83
2021/08/31 07:30:38;;;;;;;12.13;8.87;;;;;;;23.91;52.41;94981.69;5073216;28;20546;-83
2021/08/31 07:33:06;;;;;;;15.30;8.53;;;;;;;24.20;51.64;94969.66;5073212;28;20460;-83
2021/08/31 07:35:33;;;;;;;17.67;10.30;;;;;;;24.45;50.51;94970.59;5073282;28;20435;-83
2021/08/31 07:38:02;;;;;;;15.37;8.60;;;;;;;24.64;49.80;94966.19;5073589;28;20859;-83
2021/08/31 07:40:30;;;;;;;10.47;9.07;;;;;;;24.78;49.00;94966.91;5073469;28;20446;-83
2021/08/31 07:42:57;;;;;;;13.13;8.80;;;;;;;24.84;48.88;94972.22;5073255;28;20457;-83
2021/08/31 07:45:25;;;;;;;18.00;9.40;;;;;;;24.48;48.60;94978.22;5073379;28;20868;-83
2021/08/31 07:47:52;;;;;;;12.30;8.80;;;;;;;24.58;50.15;94975.09;5072741;28;20533;-83
2021/08/31 07:50:19;;;;;;;16.10;9.10;;;;;;;24.79;48.66;94973.94;5073305;28;20495;-83
2021/08/31 07:52:47;;;;;;;13.30;8.00;;;;;;;24.81;47.98;94970.00;5072868;28;20914;-83
2021/08/31 07:55:16;;;;;;;15.03;9.07;;;;;;;24.78;48.17;94961.53;5037841;28;20440;-84
2021/08/31 07:57:43;;;;;;;12.00;7.97;;;;;;;24.91;48.30;94970.34;5072721;28;20447;-83
2021/08/31 08:00:13;;;;;;;13.07;9.67;;;;;;;24.91;48.74;94973.03;5072982;28;20485;-83
2021/08/31 08:02:42;;;;;;;11.27;8.13;;;;;;;25.06;48.25;94964.69;5072632;28;20447;-83
2021/08/31 08:05:10;;;;;;;15.03;8.53;;;;;;;25.09;48.68;94966.94;5072670;28;20485;-83
2021/08/31 08:07:38;;;;;;;10.70;7.77;;;;;;;25.18;47.50;94964.84;5072532;28;20483;-83
2021/08/31 08:10:06;;;;;;;17.63;8.33;;;;;;;25.30;46.68;94963.06;5037076;28;20444;-83
2021/08/31 08:12:34;;;;;;;10.77;8.07;;;;;;;25.35;47.34;94965.09;5072830;28;20447;-83
2021/08/31 08:15:01;;;;;;;11.90;8.40;;;;;;;24.86;46.33;94964.78;5037230;28;20497;-83
2021/08/31 08:17:28;;;;;;;14.23;8.63;;;;;;;25.05;47.55;94955.00;5072559;28;20457;-83
2021/08/31 08:19:56;;;;;;;14.00;7.70;;;;;;;25.36;48.57;94953.31;5072296;28;20526;-83
2021/08/31 08:22:23;;;;;;;11.17;7.73;;;;;;;25.32;46.38;94958.28;5072124;28;20996;-83
2021/08/31 08:24:50;;;;;;;13.60;7.77;;;;;;;25.51;47.73;94948.44;5072315;28;20531;-83
2021/08/31 08:27:17;;;;;;;17.43;8.33;;;;;;;25.39;47.06;94953.69;5020306;28;20570;-83
2021/08/31 08:29:44;;;;;;;17.90;9.00;;;;;;;25.49;47.88;94945.97;5037486;28;20457;-83
2021/08/31 08:32:13;;;;;;;11.37;7.60;;;;;;;25.46;46.94;94938.34;5020522;28;21039;-83
2021/08/31 08:34:40;;;;;;;14.00;7.90;;;;;;;25.56;47.45;94943.22;5072154;28;20996;-83
2021/08/31 08:37:09;;;;;;;9.43;7.10;;;;;;;25.69;46.42;94940.41;5036818;28;20532;-83
2021/08/31 08:39:37;;;;;;;7.50;6.70;;;;;;;25.62;44.58;94929.69;5072593;28;20445;-83
2021/08/31 08:42:05;;;;;;;10.50;6.63;;;;;;;25.84;45.57;94929.31;5072243;28;20440;-83
2021/08/31 08:44:33;;;;;;;11.37;6.50;;;;;;;26.06;45.06;94933.19;5072306;28;20527;-83
2021/08/31 08:47:00;;;;;;;7.93;6.40;;;;;;;26.24;44.15;94930.47;5072313;28;20569;-82
2021/08/31 08:49:27;;;;;;;12.70;7.47;;;;;;;26.15;44.81;94929.16;5072492;28;20445;-83
2021/08/31 08:51:55;;;;;;;8.33;7.23;;;;;;;26.19;43.91;94929.53;5072038;28;20460;-83
2021/08/31 08:54:24;;;;;;;12.20;6.30;;;;;;;26.33;44.13;94922.94;5072484;28;20519;-83
2021/08/31 08:56:52;;;;;;;8.40;6.80;;;;;;;26.38;44.76;94925.81;5071859;28;20449;-83
2021/08/31 08:59:19;;;;;;;8.40;7.60;;;;;;;26.34;44.13;94923.78;5071948;28;20448;-83
2021/08/31 09:01:48;;;;;;;8.20;6.93;;;;;;;26.29;44.12;94916.34;5071841;28;20532;-83
2021/08/31 09:04:17;;;;;;;10.70;7.40;;;;;;;26.38;44.87;94917.72;5036944;28;20543;-83
2021/08/31 09:06:45;;;;;;;9.33;6.73;;;;;;;26.53;42.03;94911.91;5071991;28;20445;-83
2021/08/31 09:09:13;;;;;;;11.67;6.10;;;;;;;26.68;41.74;94911.53;5071845;28;20533;-83
2021/08/31 09:11:46;;;;;;;8.07;7.23;;;;;;;26.60;42.83;94911.81;5071669;28;20520;-83
2021/08/31 09:14:20;;;;;;;10.40;6.80;;;;;;;26.45;40.57;94907.69;5021821;28;20962;-83
2021/08/31 09:16:49;;;;;;;10.43;6.67;;;;;;;26.30;40.71;94907.22;5071591;28;21042;-83
2021/08/31 09:19:16;;;;;;;13.97;8.37;;;;;;;26.37;40.24;94899.94;5071880;28;20465;-83
2021/08/31 09:21:46;;;;;;;7.77;5.93;;;;;;;26.46;40.71;94903.13;5072034;28;20532;-83
2021/08/31 09:25:03;;;;;;;8.80;6.23;;;;;;;26.65;41.84;94895.84;5053321;28;20495;-83
2021/08/31 09:27:36;;;;;;;6.10;5.53;;;;;;;26.46;38.21;94895.88;5071843;28;21051;-83
2021/08/31 09:30:19;;;;;;;5.30;4.80;;;;;;;26.47;38.69;94894.00;5036270;28;20532;-83
2021/08/31 09:33:01;;;;;;;5.93;4.33;;;;;;;26.12;39.14;94889.25;5071585;28;20888;-84
2021/08/31 09:35:31;;;;;;;6.60;5.63;;;;;;;26.18;41.03;94891.03;5020572;28;20486;-83
2021/08/31 09:37:59;;;;;;;11.13;6.20;;;;;;;26.22;39.81;94880.63;5073950;28;20967;-84
2021/08/31 09:40:30;;;;;;;8.37;6.23;;;;;;;26.17;40.13;94885.88;5075495;28;20440;-83
2021/08/31 09:43:01;;;;;;;10.50;5.80;;;;;;;26.24;39.90;94876.69;5075426;28;20449;-83
2021/08/31 09:45:30;;;;;;;9.93;6.30;;;;;;;26.13;39.92;94887.38;5039573;28;20440;-83
2021/08/31 09:47:59;;;;;;;12.03;6.40;;;;;;;26.11;40.61;94874.16;5075160;28;20480;-83
2021/08/31 09:50:29;;;;;;;7.57;6.50;;;;;;;26.20;40.91;94862.03;5075303;28;20929;-83
2021/08/31 09:53:05;;;;;;;6.63;5.90;;;;;;;26.34;41.92;94876.19;5075107;28;20885;-83
2021/08/31 09:55:32;;;;;;;7.53;5.97;;;;;;;26.43;42.10;94866.72;5075219;28;20535;-83
2021/08/31 09:58:14;;;;;;;7.43;5.87;;;;;;;26.53;39.59;94869.69;5075164;28;20551;-84
2021/08/31 10:00:42;;;;;;;8.77;6.57;;;;;;;26.49;42.69;94875.75;5075345;28;20505;-83
2021/08/31 10:03:10;;;;;;;7.73;5.70;;;;;;;26.50;40.49;94861.25;5040082;28;20523;-83
2021/08/31 10:05:39;;;;;;;6.80;6.10;;;;;;;26.47;40.16;94859.84;5074983;28;21043;-83
2021/08/31 10:08:07;;;;;;;7.23;6.17;;;;;;;26.34;41.07;94854.66;5074962;28;20522;-83
2021/08/31 10:10:35;;;;;;;9.10;6.07;;;;;;;26.33;41.10;94854.84;5074627;28;20528;-83
2021/08/31 10:13:05;;;;;;;6.60;5.97;;;;;;;26.13;40.60;94849.72;5074921;28;20523;-83
2021/08/31 10:15:36;;;;;;;6.70;5.50;;;;;;;25.87;40.74;94845.50;5074990;28;20498;-84
2021/08/31 10:18:04;;;;;;;6.70;5.67;;;;;;;26.13;41.77;94845.19;5040384;28;20805;-83
2021/08/31 10:20:32;;;;;;;7.57;6.03;;;;;;;26.27;40.95;94848.50;5074657;28;20536;-83
2021/08/31 10:23:02;;;;;;;8.87;5.90;;;;;;;26.30;40.73;94848.03;5074805;28;20524;-83
2021/08/31 10:25:29;;;;;;;6.07;5.13;;;;;;;26.07;40.48;94837.19;5074322;28;20447;-84
2021/08/31 10:27:59;;;;;;;6.70;5.70;;;;;;;25.88;41.17;94833.69;5074329;28;20489;-84
2021/08/31 10:30:40;;;;;;;8.07;5.53;;;;;;;25.57;42.61;94826.59;5074341;28;20488;-83
2021/08/31 10:33:29;;;;;;;6.10;5.53;;;;;;;25.57;42.51;94826.59;5074514;28;20479;-83
2021/08/31 10:35:57;;;;;;;6.10;5.50;;;;;;;25.71;42.74;94825.41;4973135;28;20457;-83
2021/08/31 10:38:56;;;;;;;8.50;5.33;;;;;;;25.90;44.12;94824.38;4941611;28;20445;-83
2021/08/31 10:41:50;;;;;;;7.13;5.63;;;;;;;26.07;43.67;94823.75;4973296;28;20477;-84
2021/08/31 10:44:45;;;;;;;6.10;5.43;;;;;;;26.11;43.05;94822.25;4973096;28;20455;-83
2021/08/31 10:47:18;;;;;;;6.67;5.37;;;;;;;26.08;41.87;94823.53;4973128;28;20461;-83
2021/08/31 10:50:24;;;;;;;4.90;4.50;;;;;;;26.18;43.68;94821.09;4972621;28;20779;-83
2021/08/31 10:52:53;;;;;;;5.60;5.10;;;;;;;26.11;41.63;94820.38;4973008;28;20977;-83
2021/08/31 10:55:36;;;;;;;5.40;4.90;;;;;;;26.10;42.49;94823.28;4973077;28;20532;-83
2021/08/31 10:58:06;;;;;;;5.43;4.90;;;;;;;26.13;41.71;94812.91;4972932;28;20455;-83
2021/08/31 11:00:51;;;;;;;7.10;6.40;;;;;;;26.09;40.33;94816.28;4973085;28;20477;-83
2021/08/31 11:03:40;;;;;;;16.23;4.80;;;;;;;26.15;40.93;94816.19;4973517;28;20475;-83
2021/08/31 11:06:31;;;;;;;5.90;5.30;;;;;;;26.10;40.11;94815.22;4972355;28;20520;-83
2021/08/31 11:09:20;;;;;;;9.00;5.30;;;;;;;26.16;41.19;94804.38;4972756;28;20536;-83
2021/08/31 11:11:51;;;;;;;5.50;5.00;;;;;;;26.07;42.44;94810.31;4972818;28;20460;-83
2021/08/31 11:14:19;;;;;;;4.90;4.50;;;;;;;26.08;42.51;94804.69;5073714;28;20856;-83
2021/08/31 11:16:48;;;;;;;5.07;4.57;;;;;;;25.80;41.22;94801.75;5073260;28;20531;-83
2021/08/31 11:19:30;;;;;;;5.17;4.53;;;;;;;25.88;39.70;94801.44;5074089;28;20540;-83
2021/08/31 11:21:58;;;;;;;6.30;5.17;;;;;;;25.97;41.94;94805.44;5072606;28;20437;-84
2021/08/31 11:24:26;;;;;;;9.70;4.40;;;;;;;26.15;41.42;94800.03;5072539;28;20524;-83
2021/08/31 11:27:01;;;;;;;9.67;5.00;;;;;;;26.31;42.16;94792.34;5073850;28;20449;-83
2021/08/31 11:29:29;;;;;;;5.60;5.03;;;;;;;26.39;41.23;94790.19;5072434;28;20484;-83
2021/08/31 11:32:00;;;;;;;6.93;5.27;;;;;;;26.57;41.05;94791.16;5072245;28;20487;-83
2021/08/31 11:34:29;;;;;;;5.53;5.03;;;;;;;26.66;40.68;94787.09;5070565;28;20445;-83
2021/08/31 11:37:05;;;;;;;7.37;5.40;;;;;;;26.74;40.62;94792.13;5066075;28;20528;-83
2021/08/31 11:39:32;;;;;;;5.50;5.03;;;;;;;26.22;42.17;94786.47;5073239;28;20995;-83
2021/08/31 11:41:59;;;;;;;6.47;5.00;;;;;;;26.32;40.35;94784.06;5021198;28;20535;-83
2021/08/31 11:44:26;;;;;;;5.77;4.93;;;;;;;26.32;41.49;94785.94;5073025;28;20510;-83
2021/08/31 11:46:55;;;;;;;5.13;4.73;;;;;;;26.16;42.08;94779.34;5072527;28;20449;-83
2021/08/31 11:49:24;;;;;;;7.90;5.10;;;;;;;26.17;41.93;94776.41;5071305;28;20988;-83
2021/08/31 11:52:07;;;;;;;5.43;4.97;;;;;;;26.14;42.17;94770.69;5021683;28;20876;-82
2021/08/31 11:54:39;;;;;;;5.80;4.10;;;;;;;26.00;39.00;94771.91;5068291;28;20889;-83